sensor_id;sensor_type;location;lat;lon;timestamp;pressure;altitude;pressure_sealevel;temperature;humidity
76201;BME280;64981;52.930;9.266;2024-01-06T00:02:23;99996.84;;;2.57;83.31
76201;BME280;64981;52.930;9.266;2024-01-06T00:04:49;99997.91;;;2.75;82.66
76201;BME280;64981;52.930;9.266;2024-01-06T00:07:14;100004.47;;;2.69;82.65
76201;BME280;64981;52.930;9.266;2024-01-06T00:09:40;100000.88;;;2.70;83.12
76201;BME280;64981;52.930;9.266;2024-01-06T00:12:06;100000.88;;;2.70;82.82
76201;BME280;64981;52.930;9.266;2024-01-06T00:14:32;100001.03;;;2.69;82.48
76201;BME280;64981;52.930;9.266;2024-01-06T00:16:57;99997.91;;;2.54;83.31
76201;BME280;64981;52.930;9.266;2024-01-06T00:19:23;100007.50;;;2.74;82.69
76201;BME280;64981;52.930;9.266;2024-01-06T00:21:48;100009.53;;;2.71;82.57
76201;BME280;64981;52.930;9.266;2024-01-06T00:24:14;100013.88;;;2.61;82.79
76201;BME280;64981;52.930;9.266;2024-01-06T00:26:40;100016.28;;;2.73;82.79
76201;BME280;64981;52.930;9.266;2024-01-06T00:29:05;100016.28;;;2.73;82.28
76201;BME280;64981;52.930;9.266;2024-01-06T00:31:31;100019.94;;;2.92;81.71
76201;BME280;64981;52.930;9.266;2024-01-06T00:33:56;100026.53;;;2.65;83.14
76201;BME280;64981;52.930;9.266;2024-01-06T00:36:22;100015.78;;;2.89;82.48
76201;BME280;64981;52.930;9.266;2024-01-06T00:38:48;100026.63;;;2.85;82.45
76201;BME280;64981;52.930;9.266;2024-01-06T00:41:14;100022.72;;;3.00;81.42
76201;BME280;64981;52.930;9.266;2024-01-06T00:43:40;100031.50;;;2.99;81.54
76201;BME280;64981;52.930;9.266;2024-01-06T00:46:06;100028.16;;;2.87;81.66
76201;BME280;64981;52.930;9.266;2024-01-06T00:48:31;100031.53;;;3.08;80.52
76201;BME280;64981;52.930;9.266;2024-01-06T00:50:57;100032.75;;;2.74;81.90
76201;BME280;64981;52.930;9.266;2024-01-06T00:53:22;100039.41;;;2.88;81.50
76201;BME280;64981;52.930;9.266;2024-01-06T00:55:48;100038.47;;;2.98;81.34
76201;BME280;64981;52.930;9.266;2024-01-06T00:58:13;100035.56;;;2.61;82.60
76201;BME280;64981;52.930;9.266;2024-01-06T01:00:39;100047.03;;;2.79;81.83
76201;BME280;64981;52.930;9.266;2024-01-06T01:03:05;100039.69;;;2.85;81.66
76201;BME280;64981;52.930;9.266;2024-01-06T01:05:30;100046.56;;;2.95;81.17
76201;BME280;64981;52.930;9.266;2024-01-06T01:07:56;100052.41;;;2.78;81.59
76201;BME280;64981;52.930;9.266;2024-01-06T01:10:22;100057.16;;;2.73;81.85
76201;BME280;64981;52.930;9.266;2024-01-06T01:12:47;100053.28;;;2.67;81.69
76201;BME280;64981;52.930;9.266;2024-01-06T01:15:13;100052.19;;;2.91;80.64
76201;BME280;64981;52.930;9.266;2024-01-06T01:17:38;100052.88;;;2.62;82.24
76201;BME280;64981;52.930;9.266;2024-01-06T01:20:04;100051.25;;;2.71;82.05
76201;BME280;64981;52.930;9.266;2024-01-06T01:22:30;100063.63;;;2.99;81.41
76201;BME280;64981;52.930;9.266;2024-01-06T01:24:56;100065.63;;;2.86;81.91
76201;BME280;64981;52.930;9.266;2024-01-06T01:27:21;100062.16;;;2.35;83.43
76201;BME280;64981;52.930;9.266;2024-01-06T01:29:47;100054.41;;;2.44;83.42
76201;BME280;64981;52.930;9.266;2024-01-06T01:32:13;100073.06;;;2.49;83.58
76201;BME280;64981;52.930;9.266;2024-01-06T01:34:39;100071.81;;;2.64;83.19
76201;BME280;64981;52.930;9.266;2024-01-06T01:37:04;100077.06;;;2.74;82.73
76201;BME280;64981;52.930;9.266;2024-01-06T01:39:30;100077.13;;;2.83;82.44
76201;BME280;64981;52.930;9.266;2024-01-06T01:41:56;100074.91;;;2.58;83.05
76201;BME280;64981;52.930;9.266;2024-01-06T01:44:21;100086.94;;;2.50;83.38
76201;BME280;64981;52.930;9.266;2024-01-06T01:46:48;100084.06;;;2.73;82.75
76201;BME280;64981;52.930;9.266;2024-01-06T01:49:14;100078.72;;;2.54;83.25
76201;BME280;64981;52.930;9.266;2024-01-06T01:51:41;100092.28;;;2.69;83.22
76201;BME280;64981;52.930;9.266;2024-01-06T01:54:09;100090.81;;;2.55;83.44
76201;BME280;64981;52.930;9.266;2024-01-06T01:56:34;100089.41;;;2.93;82.25
76201;BME280;64981;52.930;9.266;2024-01-06T01:59:06;100094.56;;;3.04;81.29
76201;BME280;64981;52.930;9.266;2024-01-06T02:01:34;100099.41;;;2.88;82.03
76201;BME280;64981;52.930;9.266;2024-01-06T02:04:00;100104.78;;;2.34;84.03
76201;BME280;64981;52.930;9.266;2024-01-06T02:06:26;100095.59;;;2.50;83.62
76201;BME280;64981;52.930;9.266;2024-01-06T02:08:53;100109.00;;;2.87;82.11
76201;BME280;64981;52.930;9.266;2024-01-06T02:11:18;100092.41;;;2.67;82.53
76201;BME280;64981;52.930;9.266;2024-01-06T02:13:44;100098.53;;;2.57;82.82
76201;BME280;64981;52.930;9.266;2024-01-06T02:16:10;100104.81;;;2.75;82.71
76201;BME280;64981;52.930;9.266;2024-01-06T02:18:35;100100.22;;;2.67;82.76
76201;BME280;64981;52.930;9.266;2024-01-06T02:21:02;100122.41;;;2.82;82.19
76201;BME280;64981;52.930;9.266;2024-01-06T02:23:29;100101.44;;;2.84;81.81
76201;BME280;64981;52.930;9.266;2024-01-06T02:25:55;100115.22;;;2.96;81.91
76201;BME280;64981;52.930;9.266;2024-01-06T02:28:21;100111.25;;;2.92;81.89
76201;BME280;64981;52.930;9.266;2024-01-06T02:30:47;100112.03;;;3.13;80.97
76201;BME280;64981;52.930;9.266;2024-01-06T02:33:12;100101.75;;;2.91;81.86
76201;BME280;64981;52.930;9.266;2024-01-06T02:35:38;100128.41;;;2.94;81.48
76201;BME280;64981;52.930;9.266;2024-01-06T02:38:05;100129.56;;;2.80;81.81
76201;BME280;64981;52.930;9.266;2024-01-06T02:40:31;100126.75;;;2.72;82.47
76201;BME280;64981;52.930;9.266;2024-01-06T02:42:58;100129.50;;;2.92;81.67
76201;BME280;64981;52.930;9.266;2024-01-06T02:45:24;100135.34;;;2.84;82.13
76201;BME280;64981;52.930;9.266;2024-01-06T02:47:49;100130.69;;;2.88;81.85
76201;BME280;64981;52.930;9.266;2024-01-06T02:50:15;100130.00;;;2.65;82.58
76201;BME280;64981;52.930;9.266;2024-01-06T02:52:40;100135.97;;;2.97;81.64
76201;BME280;64981;52.930;9.266;2024-01-06T02:55:06;100130.59;;;2.57;82.71
76201;BME280;64981;52.930;9.266;2024-01-06T02:57:32;100135.53;;;2.71;82.25
76201;BME280;64981;52.930;9.266;2024-01-06T02:59:57;100133.28;;;2.46;83.32
76201;BME280;64981;52.930;9.266;2024-01-06T03:02:23;100140.06;;;2.38;83.63
76201;BME280;64981;52.930;9.266;2024-01-06T03:04:49;100139.91;;;2.50;83.23
76201;BME280;64981;52.930;9.266;2024-01-06T03:07:15;100138.97;;;2.72;82.17
76201;BME280;64981;52.930;9.266;2024-01-06T03:09:40;100153.28;;;2.57;82.75
76201;BME280;64981;52.930;9.266;2024-01-06T03:12:06;100146.41;;;2.45;83.21
76201;BME280;64981;52.930;9.266;2024-01-06T03:14:35;100159.69;;;2.42;83.97
76201;BME280;64981;52.930;9.266;2024-01-06T03:17:01;100149.31;;;2.62;83.14
76201;BME280;64981;52.930;9.266;2024-01-06T03:19:28;100164.59;;;2.88;82.03
76201;BME280;64981;52.930;9.266;2024-01-06T03:21:54;100161.16;;;2.87;81.59
76201;BME280;64981;52.930;9.266;2024-01-06T03:24:21;100164.06;;;2.73;81.76
76201;BME280;64981;52.930;9.266;2024-01-06T03:26:47;100167.75;;;2.70;82.26
76201;BME280;64981;52.930;9.266;2024-01-06T03:29:12;100166.44;;;2.76;81.95
76201;BME280;64981;52.930;9.266;2024-01-06T03:31:42;100171.09;;;2.72;82.17
76201;BME280;64981;52.930;9.266;2024-01-06T03:34:08;100167.00;;;2.59;82.29
76201;BME280;64981;52.930;9.266;2024-01-06T03:36:34;100185.00;;;2.82;81.40
76201;BME280;64981;52.930;9.266;2024-01-06T03:38:59;100187.06;;;2.79;81.41
76201;BME280;64981;52.930;9.266;2024-01-06T03:41:25;100196.94;;;2.64;82.09
76201;BME280;64981;52.930;9.266;2024-01-06T03:43:50;100195.13;;;2.44;83.27
76201;BME280;64981;52.930;9.266;2024-01-06T03:46:16;100187.59;;;2.62;81.71
76201;BME280;64981;52.930;9.266;2024-01-06T03:48:42;100195.06;;;2.87;81.38
76201;BME280;64981;52.930;9.266;2024-01-06T03:51:07;100200.00;;;2.38;82.89
76201;BME280;64981;52.930;9.266;2024-01-06T03:53:33;100211.84;;;2.73;81.75
76201;BME280;64981;52.930;9.266;2024-01-06T03:55:58;100212.31;;;2.78;81.58
76201;BME280;64981;52.930;9.266;2024-01-06T03:58:24;100215.50;;;3.03;80.49
76201;BME280;64981;52.930;9.266;2024-01-06T04:00:49;100216.84;;;2.97;80.29
76201;BME280;64981;52.930;9.266;2024-01-06T04:03:15;100225.69;;;2.53;82.00
76201;BME280;64981;52.930;9.266;2024-01-06T04:05:40;100232.50;;;2.65;82.14
76201;BME280;64981;52.930;9.266;2024-01-06T04:08:06;100232.94;;;2.70;81.62
76201;BME280;64981;52.930;9.266;2024-01-06T04:10:32;100232.84;;;2.72;81.54
76201;BME280;64981;52.930;9.266;2024-01-06T04:12:57;100239.16;;;2.90;81.01
76201;BME280;64981;52.930;9.266;2024-01-06T04:15:23;100245.50;;;2.76;81.38
76201;BME280;64981;52.930;9.266;2024-01-06T04:17:49;100227.44;;;2.53;82.14
76201;BME280;64981;52.930;9.266;2024-01-06T04:20:15;100240.25;;;2.45;82.07
76201;BME280;64981;52.930;9.266;2024-01-06T04:22:40;100245.06;;;2.60;81.95
76201;BME280;64981;52.930;9.266;2024-01-06T04:25:06;100242.28;;;2.84;81.10
76201;BME280;64981;52.930;9.266;2024-01-06T04:27:32;100240.69;;;2.93;80.89
76201;BME280;64981;52.930;9.266;2024-01-06T04:29:59;100248.97;;;2.66;81.25
76201;BME280;64981;52.930;9.266;2024-01-06T04:32:25;100258.50;;;2.88;80.51
76201;BME280;64981;52.930;9.266;2024-01-06T04:34:50;100259.34;;;2.88;80.78
76201;BME280;64981;52.930;9.266;2024-01-06T04:37:16;100256.88;;;2.75;80.99
76201;BME280;64981;52.930;9.266;2024-01-06T04:39:41;100272.53;;;2.75;80.63
76201;BME280;64981;52.930;9.266;2024-01-06T04:42:07;100263.91;;;2.64;81.26
76201;BME280;64981;52.930;9.266;2024-01-06T04:44:33;100276.72;;;2.56;81.51
76201;BME280;64981;52.930;9.266;2024-01-06T04:46:58;100277.56;;;2.56;81.44
76201;BME280;64981;52.930;9.266;2024-01-06T04:49:24;100282.34;;;2.40;82.04
76201;BME280;64981;52.930;9.266;2024-01-06T04:51:49;100276.09;;;2.09;82.58
76201;BME280;64981;52.930;9.266;2024-01-06T04:54:15;100294.03;;;2.46;81.97
76201;BME280;64981;52.930;9.266;2024-01-06T04:56:41;100296.88;;;2.54;81.17
76201;BME280;64981;52.930;9.266;2024-01-06T04:59:06;100287.84;;;2.58;80.63
76201;BME280;64981;52.930;9.266;2024-01-06T05:01:32;100295.50;;;2.27;81.93
76201;BME280;64981;52.930;9.266;2024-01-06T05:03:58;100304.22;;;2.60;81.11
76201;BME280;64981;52.930;9.266;2024-01-06T05:06:24;100295.59;;;2.26;82.45
76201;BME280;64981;52.930;9.266;2024-01-06T05:08:50;100295.22;;;2.53;81.50
76201;BME280;64981;52.930;9.266;2024-01-06T05:11:16;100307.94;;;2.35;81.50
76201;BME280;64981;52.930;9.266;2024-01-06T05:13:41;100300.59;;;2.18;82.74
76201;BME280;64981;52.930;9.266;2024-01-06T05:16:08;100294.97;;;2.56;80.95
76201;BME280;64981;52.930;9.266;2024-01-06T05:18:34;100307.66;;;2.49;81.28
76201;BME280;64981;52.930;9.266;2024-01-06T05:21:00;100311.25;;;2.37;82.36
76201;BME280;64981;52.930;9.266;2024-01-06T05:23:26;100302.50;;;2.38;81.72
76201;BME280;64981;52.930;9.266;2024-01-06T05:25:52;100311.09;;;2.50;81.92
76201;BME280;64981;52.930;9.266;2024-01-06T05:28:17;100301.91;;;2.35;82.35
76201;BME280;64981;52.930;9.266;2024-01-06T05:30:43;100318.09;;;2.49;81.92
76201;BME280;64981;52.930;9.266;2024-01-06T05:33:10;100316.81;;;2.21;82.34
76201;BME280;64981;52.930;9.266;2024-01-06T05:35:39;100331.81;;;2.51;81.14
76201;BME280;64981;52.930;9.266;2024-01-06T05:38:05;100330.78;;;2.20;82.09
76201;BME280;64981;52.930;9.266;2024-01-06T05:40:30;100337.06;;;2.18;81.98
76201;BME280;64981;52.930;9.266;2024-01-06T05:42:56;100340.00;;;2.36;81.47
76201;BME280;64981;52.930;9.266;2024-01-06T05:45:22;100333.03;;;2.47;81.07
76201;BME280;64981;52.930;9.266;2024-01-06T05:47:48;100345.47;;;2.44;81.16
76201;BME280;64981;52.930;9.266;2024-01-06T05:50:16;100344.31;;;2.25;81.76
76201;BME280;64981;52.930;9.266;2024-01-06T05:52:42;100353.19;;;2.12;82.12
76201;BME280;64981;52.930;9.266;2024-01-06T05:55:07;100348.22;;;2.31;81.12
76201;BME280;64981;52.930;9.266;2024-01-06T05:57:34;100353.28;;;2.55;80.10
76201;BME280;64981;52.930;9.266;2024-01-06T05:59:59;100352.47;;;2.21;81.19
76201;BME280;64981;52.930;9.266;2024-01-06T06:02:25;100359.56;;;2.08;82.42
76201;BME280;64981;52.930;9.266;2024-01-06T06:04:51;100374.25;;;2.20;82.28
76201;BME280;64981;52.930;9.266;2024-01-06T06:07:18;100363.22;;;2.05;82.95
76201;BME280;64981;52.930;9.266;2024-01-06T06:09:44;100371.31;;;2.24;81.91
76201;BME280;64981;52.930;9.266;2024-01-06T06:12:13;100369.63;;;2.23;81.78
76201;BME280;64981;52.930;9.266;2024-01-06T06:14:38;100376.50;;;2.24;82.23
76201;BME280;64981;52.930;9.266;2024-01-06T06:17:04;100377.44;;;2.46;80.68
76201;BME280;64981;52.930;9.266;2024-01-06T06:19:29;100384.09;;;2.39;81.40
76201;BME280;64981;52.930;9.266;2024-01-06T06:21:55;100393.66;;;2.05;82.48
76201;BME280;64981;52.930;9.266;2024-01-06T06:24:21;100383.69;;;1.99;82.74
76201;BME280;64981;52.930;9.266;2024-01-06T06:26:46;100394.84;;;2.12;82.41
76201;BME280;64981;52.930;9.266;2024-01-06T06:29:12;100392.59;;;2.07;82.40
76201;BME280;64981;52.930;9.266;2024-01-06T06:31:37;100407.59;;;1.93;83.29
76201;BME280;64981;52.930;9.266;2024-01-06T06:34:03;100408.50;;;2.38;81.22
76201;BME280;64981;52.930;9.266;2024-01-06T06:36:28;100413.78;;;2.14;81.91
76201;BME280;64981;52.930;9.266;2024-01-06T06:38:54;100404.47;;;2.22;82.22
76201;BME280;64981;52.930;9.266;2024-01-06T06:41:20;100415.63;;;2.47;81.45
76201;BME280;64981;52.930;9.266;2024-01-06T06:43:45;100423.88;;;2.29;81.80
76201;BME280;64981;52.930;9.266;2024-01-06T06:46:11;100430.41;;;2.24;82.31
76201;BME280;64981;52.930;9.266;2024-01-06T06:48:36;100435.84;;;2.21;82.01
76201;BME280;64981;52.930;9.266;2024-01-06T06:51:02;100448.22;;;2.63;79.84
76201;BME280;64981;52.930;9.266;2024-01-06T06:53:28;100442.97;;;2.41;81.10
76201;BME280;64981;52.930;9.266;2024-01-06T06:55:53;100458.03;;;2.38;81.53
76201;BME280;64981;52.930;9.266;2024-01-06T06:58:19;100467.97;;;2.55;80.27
76201;BME280;64981;52.930;9.266;2024-01-06T07:00:44;100479.34;;;2.32;81.14
76201;BME280;64981;52.930;9.266;2024-01-06T07:03:10;100474.09;;;2.20;81.42
76201;BME280;64981;52.930;9.266;2024-01-06T07:05:36;100487.06;;;2.44;80.53
76201;BME280;64981;52.930;9.266;2024-01-06T07:08:01;100478.84;;;2.26;81.03
76201;BME280;64981;52.930;9.266;2024-01-06T07:10:27;100475.44;;;2.48;80.70
76201;BME280;64981;52.930;9.266;2024-01-06T07:12:54;100492.88;;;2.48;80.19
76201;BME280;64981;52.930;9.266;2024-01-06T07:15:19;100484.19;;;2.36;81.00
76201;BME280;64981;52.930;9.266;2024-01-06T07:17:45;100497.94;;;2.38;81.03
76201;BME280;64981;52.930;9.266;2024-01-06T07:20:10;100496.22;;;2.04;81.73
76201;BME280;64981;52.930;9.266;2024-01-06T07:22:36;100500.03;;;2.22;81.30
76201;BME280;64981;52.930;9.266;2024-01-06T07:25:02;100511.66;;;2.29;81.14
76201;BME280;64981;52.930;9.266;2024-01-06T07:27:27;100519.38;;;2.42;80.93
76201;BME280;64981;52.930;9.266;2024-01-06T07:29:53;100520.28;;;2.29;81.07
76201;BME280;64981;52.930;9.266;2024-01-06T07:32:22;100511.66;;;2.29;80.60
76201;BME280;64981;52.930;9.266;2024-01-06T07:34:47;100523.13;;;2.26;80.96
76201;BME280;64981;52.930;9.266;2024-01-06T07:37:13;100506.16;;;2.10;81.38
76201;BME280;64981;52.930;9.266;2024-01-06T07:39:38;100514.00;;;2.21;80.92
76201;BME280;64981;52.930;9.266;2024-01-06T07:42:04;100486.56;;;1.93;81.67
76201;BME280;64981;52.930;9.266;2024-01-06T07:44:30;100516.59;;;2.10;81.68
76201;BME280;64981;52.930;9.266;2024-01-06T07:46:55;100524.63;;;2.07;81.68
76201;BME280;64981;52.930;9.266;2024-01-06T07:49:21;100523.00;;;2.17;81.35
76201;BME280;64981;52.930;9.266;2024-01-06T07:51:46;100542.91;;;2.29;81.13
76201;BME280;64981;52.930;9.266;2024-01-06T07:54:12;100543.25;;;2.59;80.39
76201;BME280;64981;52.930;9.266;2024-01-06T07:56:38;100559.69;;;2.49;80.04
76201;BME280;64981;52.930;9.266;2024-01-06T07:59:04;100562.28;;;2.49;80.10
76201;BME280;64981;52.930;9.266;2024-01-06T08:01:30;100550.19;;;2.37;80.31
76201;BME280;64981;52.930;9.266;2024-01-06T08:03:57;100567.25;;;2.41;80.68
76201;BME280;64981;52.930;9.266;2024-01-06T08:06:23;100566.44;;;2.51;79.89
76201;BME280;64981;52.930;9.266;2024-01-06T08:08:48;100573.00;;;2.57;79.82
76201;BME280;64981;52.930;9.266;2024-01-06T08:11:14;100579.84;;;2.58;79.78
76201;BME280;64981;52.930;9.266;2024-01-06T08:13:39;100588.34;;;2.38;80.03
76201;BME280;64981;52.930;9.266;2024-01-06T08:16:05;100591.66;;;2.40;80.35
76201;BME280;64981;52.930;9.266;2024-01-06T08:18:31;100600.56;;;2.48;80.02
76201;BME280;64981;52.930;9.266;2024-01-06T08:20:56;100606.53;;;2.26;80.89
76201;BME280;64981;52.930;9.266;2024-01-06T08:23:22;100592.63;;;2.15;81.03
76201;BME280;64981;52.930;9.266;2024-01-06T08:25:48;100596.22;;;2.25;80.67
76201;BME280;64981;52.930;9.266;2024-01-06T08:28:14;100604.47;;;2.43;80.59
76201;BME280;64981;52.930;9.266;2024-01-06T08:30:41;100610.38;;;2.45;80.38
76201;BME280;64981;52.930;9.266;2024-01-06T08:33:08;100606.38;;;2.52;80.06
76201;BME280;64981;52.930;9.266;2024-01-06T08:35:33;100615.59;;;2.45;80.36
76201;BME280;64981;52.930;9.266;2024-01-06T08:37:59;100616.34;;;2.58;79.61
76201;BME280;64981;52.930;9.266;2024-01-06T08:40:24;100630.84;;;2.73;79.21
76201;BME280;64981;52.930;9.266;2024-01-06T08:42:50;100631.28;;;2.56;79.14
76201;BME280;64981;52.930;9.266;2024-01-06T08:45:15;100632.66;;;2.72;78.72
76201;BME280;64981;52.930;9.266;2024-01-06T08:47:41;100640.72;;;2.46;80.13
76201;BME280;64981;52.930;9.266;2024-01-06T08:50:07;100637.28;;;2.45;79.65
76201;BME280;64981;52.930;9.266;2024-01-06T08:52:33;100642.56;;;2.33;80.03
76201;BME280;64981;52.930;9.266;2024-01-06T08:54:58;100644.47;;;2.42;80.00
76201;BME280;64981;52.930;9.266;2024-01-06T08:57:24;100647.69;;;2.45;79.95
76201;BME280;64981;52.930;9.266;2024-01-06T08:59:49;100658.88;;;2.47;79.64
76201;BME280;64981;52.930;9.266;2024-01-06T09:02:15;100668.91;;;2.41;80.04
76201;BME280;64981;52.930;9.266;2024-01-06T09:04:40;100666.69;;;2.47;80.00
76201;BME280;64981;52.930;9.266;2024-01-06T09:07:06;100667.25;;;2.40;79.55
76201;BME280;64981;52.930;9.266;2024-01-06T09:09:31;100663.69;;;2.41;79.79
76201;BME280;64981;52.930;9.266;2024-01-06T09:11:57;100671.97;;;2.35;80.08
76201;BME280;64981;52.930;9.266;2024-01-06T09:14:23;100680.28;;;2.40;79.71
76201;BME280;64981;52.930;9.266;2024-01-06T09:16:48;100678.00;;;2.11;80.28
76201;BME280;64981;52.930;9.266;2024-01-06T09:19:14;100683.28;;;2.22;80.08
76201;BME280;64981;52.930;9.266;2024-01-06T09:21:39;100687.78;;;2.08;80.22
76201;BME280;64981;52.930;9.266;2024-01-06T09:24:05;100684.91;;;2.00;80.99
76201;BME280;64981;52.930;9.266;2024-01-06T09:26:33;100682.13;;;2.14;80.62
76201;BME280;64981;52.930;9.266;2024-01-06T09:29:00;100688.50;;;1.73;81.29
76201;BME280;64981;52.930;9.266;2024-01-06T09:31:26;100698.72;;;2.13;80.66
76201;BME280;64981;52.930;9.266;2024-01-06T09:33:51;100709.59;;;2.31;79.02
76201;BME280;64981;52.930;9.266;2024-01-06T09:36:17;100703.16;;;2.00;80.19
76201;BME280;64981;52.930;9.266;2024-01-06T09:38:43;100721.63;;;1.84;81.15
76201;BME280;64981;52.930;9.266;2024-01-06T09:41:08;100720.81;;;2.07;80.38
76201;BME280;64981;52.930;9.266;2024-01-06T09:43:34;100726.00;;;1.71;80.82
76201;BME280;64981;52.930;9.266;2024-01-06T09:46:06;100730.16;;;1.73;82.09
76201;BME280;64981;52.930;9.266;2024-01-06T09:48:40;100730.88;;;2.01;80.69
76201;BME280;64981;52.930;9.266;2024-01-06T09:51:10;100747.00;;;2.06;80.42
76201;BME280;64981;52.930;9.266;2024-01-06T09:53:43;100740.91;;;1.44;81.87
76201;BME280;64981;52.930;9.266;2024-01-06T09:56:15;100741.94;;;1.66;82.16
76201;BME280;64981;52.930;9.266;2024-01-06T09:58:41;100744.31;;;1.82;81.31
76201;BME280;64981;52.930;9.266;2024-01-06T10:01:07;100742.50;;;2.08;80.85
76201;BME280;64981;52.930;9.266;2024-01-06T10:03:35;100739.59;;;2.12;80.11
76201;BME280;64981;52.930;9.266;2024-01-06T10:06:01;100745.91;;;2.21;79.92
76201;BME280;64981;52.930;9.266;2024-01-06T10:08:30;100752.63;;;2.12;80.59
76201;BME280;64981;52.930;9.266;2024-01-06T10:10:59;100745.69;;;1.88;80.18
76201;BME280;64981;52.930;9.266;2024-01-06T10:13:25;100762.00;;;2.02;80.19
76201;BME280;64981;52.930;9.266;2024-01-06T10:15:51;100756.94;;;1.76;81.41
76201;BME280;64981;52.930;9.266;2024-01-06T10:18:16;100759.41;;;2.02;80.69
76201;BME280;64981;52.930;9.266;2024-01-06T10:20:44;100751.06;;;2.10;79.74
76201;BME280;64981;52.930;9.266;2024-01-06T10:23:11;100763.78;;;2.02;80.60
76201;BME280;64981;52.930;9.266;2024-01-06T10:25:37;100752.00;;;2.09;80.26
76201;BME280;64981;52.930;9.266;2024-01-06T10:28:03;100769.38;;;2.21;79.75
76201;BME280;64981;52.930;9.266;2024-01-06T10:30:28;100769.63;;;1.93;80.71
76201;BME280;64981;52.930;9.266;2024-01-06T10:32:54;100773.44;;;2.12;80.37
76201;BME280;64981;52.930;9.266;2024-01-06T10:35:20;100765.94;;;2.08;79.87
76201;BME280;64981;52.930;9.266;2024-01-06T10:37:47;100771.72;;;2.00;80.67
76201;BME280;64981;52.930;9.266;2024-01-06T10:40:16;100777.41;;;2.05;80.25
76201;BME280;64981;52.930;9.266;2024-01-06T10:42:42;100786.25;;;2.15;80.11
76201;BME280;64981;52.930;9.266;2024-01-06T10:45:11;100775.38;;;1.85;80.89
76201;BME280;64981;52.930;9.266;2024-01-06T10:47:42;100788.34;;;2.10;80.32
76201;BME280;64981;52.930;9.266;2024-01-06T10:50:08;100787.56;;;1.97;81.25
76201;BME280;64981;52.930;9.266;2024-01-06T10:52:37;100787.22;;;2.02;80.19
76201;BME280;64981;52.930;9.266;2024-01-06T10:55:04;100791.16;;;1.95;80.23
76201;BME280;64981;52.930;9.266;2024-01-06T10:57:30;100788.34;;;1.98;80.23
76201;BME280;64981;52.930;9.266;2024-01-06T10:59:58;100790.13;;;2.10;79.35
76201;BME280;64981;52.930;9.266;2024-01-06T11:02:25;100788.47;;;1.96;79.93
76201;BME280;64981;52.930;9.266;2024-01-06T11:04:52;100790.47;;;1.93;79.58
76201;BME280;64981;52.930;9.266;2024-01-06T11:07:20;100791.50;;;1.90;79.95
76201;BME280;64981;52.930;9.266;2024-01-06T11:10:02;100798.53;;;2.13;79.20
76201;BME280;64981;52.930;9.266;2024-01-06T11:12:30;100800.16;;;1.78;80.42
76201;BME280;64981;52.930;9.266;2024-01-06T11:14:56;100796.94;;;1.87;80.22
76201;BME280;64981;52.930;9.266;2024-01-06T11:20:07;100800.56;;;1.97;79.71
76201;BME280;64981;52.930;9.266;2024-01-06T11:22:33;100806.63;;;1.85;79.67
76201;BME280;64981;52.930;9.266;2024-01-06T11:25:14;100810.59;;;1.78;79.86
76201;BME280;64981;52.930;9.266;2024-01-06T11:27:42;100810.88;;;1.99;79.79
76201;BME280;64981;52.930;9.266;2024-01-06T11:30:20;100810.66;;;1.77;80.32
76201;BME280;64981;52.930;9.266;2024-01-06T11:32:46;100815.66;;;1.67;80.74
76201;BME280;64981;52.930;9.266;2024-01-06T11:35:14;100821.06;;;2.14;79.49
76201;BME280;64981;52.930;9.266;2024-01-06T11:37:58;100817.41;;;2.04;79.33
76201;BME280;64981;52.930;9.266;2024-01-06T11:40:32;100825.44;;;1.89;79.78
76201;BME280;64981;52.930;9.266;2024-01-06T11:43:02;100826.00;;;1.81;80.16
76201;BME280;64981;52.930;9.266;2024-01-06T11:45:29;100817.34;;;2.06;79.08
76201;BME280;64981;52.930;9.266;2024-01-06T11:47:58;100805.78;;;1.85;79.52
76201;BME280;64981;52.930;9.266;2024-01-06T11:50:26;100819.44;;;1.76;79.82
76201;BME280;64981;52.930;9.266;2024-01-06T11:52:53;100820.66;;;2.08;78.91
76201;BME280;64981;52.930;9.266;2024-01-06T11:55:20;100812.97;;;1.94;78.58
76201;BME280;64981;52.930;9.266;2024-01-06T11:57:46;100829.19;;;2.22;78.07
76201;BME280;64981;52.930;9.266;2024-01-06T12:00:13;100825.38;;;1.78;79.76
76201;BME280;64981;52.930;9.266;2024-01-06T12:02:40;100826.81;;;1.69;80.25
76201;BME280;64981;52.930;9.266;2024-01-06T12:05:12;100822.84;;;1.63;80.35
76201;BME280;64981;52.930;9.266;2024-01-06T12:07:40;100831.63;;;1.75;79.66
76201;BME280;64981;52.930;9.266;2024-01-06T12:10:07;100840.44;;;1.98;79.01
76201;BME280;64981;52.930;9.266;2024-01-06T12:12:33;100837.13;;;1.83;79.58
76201;BME280;64981;52.930;9.266;2024-01-06T12:14:58;100834.22;;;1.88;79.19
76201;BME280;64981;52.930;9.266;2024-01-06T12:17:28;100832.75;;;1.71;79.88
76201;BME280;64981;52.930;9.266;2024-01-06T12:19:55;100836.09;;;1.86;79.68
76201;BME280;64981;52.930;9.266;2024-01-06T12:22:21;100842.97;;;1.99;79.05
76201;BME280;64981;52.930;9.266;2024-01-06T12:24:49;100834.94;;;1.90;79.05
76201;BME280;64981;52.930;9.266;2024-01-06T12:27:17;100838.38;;;1.78;80.34
76201;BME280;64981;52.930;9.266;2024-01-06T12:29:43;100843.47;;;1.79;80.64
76201;BME280;64981;52.930;9.266;2024-01-06T12:32:10;100849.53;;;1.80;79.90
76201;BME280;64981;52.930;9.266;2024-01-06T12:34:38;100845.78;;;1.84;79.20
76201;BME280;64981;52.930;9.266;2024-01-06T12:37:05;100856.28;;;1.95;79.35
76201;BME280;64981;52.930;9.266;2024-01-06T12:39:33;100857.88;;;1.97;79.59
76201;BME280;64981;52.930;9.266;2024-01-06T12:41:58;100858.28;;;2.04;78.71
76201;BME280;64981;52.930;9.266;2024-01-06T12:44:26;100854.00;;;1.90;79.07
76201;BME280;64981;52.930;9.266;2024-01-06T12:46:52;100869.66;;;2.03;78.20
76201;BME280;64981;52.930;9.266;2024-01-06T12:49:18;100876.63;;;2.15;77.78
76201;BME280;64981;52.930;9.266;2024-01-06T12:51:43;100874.13;;;2.01;78.17
76201;BME280;64981;52.930;9.266;2024-01-06T12:54:09;100872.75;;;1.83;78.49
76201;BME280;64981;52.930;9.266;2024-01-06T12:56:35;100863.09;;;1.97;77.44
76201;BME280;64981;52.930;9.266;2024-01-06T12:59:00;100876.75;;;1.88;78.25